createdAt,value
2022-10-19T00:04:17.161Z,65.60
2022-10-19T00:09:19.613Z,65.57
2022-10-19T00:14:23.445Z,65.93
2022-10-19T00:19:27.599Z,66.06
2022-10-19T00:24:29.550Z,66.47
2022-10-19T00:29:31.526Z,67.09
2022-10-19T00:34:33.456Z,67.25
2022-10-19T00:39:35.389Z,67.19
2022-10-19T00:44:37.321Z,67.15
2022-10-19T00:49:43.016Z,66.63
2022-10-19T00:54:46.399Z,66.93
2022-10-19T00:59:48.349Z,67.26
2022-10-19T01:04:52.100Z,67.26
2022-10-19T01:09:54.856Z,67.66
2022-10-19T01:15:06.732Z,67.99
2022-10-19T01:20:27.551Z,67.72
2022-10-19T01:26:00.199Z,68.03
2022-10-19T01:31:05.199Z,68.49
2022-10-19T01:36:38.236Z,67.94
2022-10-19T01:41:52.148Z,67.57
2022-10-19T01:47:19.673Z,67.34
2022-10-19T01:52:23.324Z,67.51
2022-10-19T01:57:37.705Z,67.24
2022-10-19T02:02:45.315Z,67.40
2022-10-19T02:07:53.479Z,67.02
2022-10-19T02:12:55.610Z,66.98
2022-10-19T02:17:59.986Z,66.87
2022-10-19T02:23:06.088Z,66.90
2022-10-19T02:28:07.961Z,66.77
2022-10-19T02:33:10.109Z,66.88
2022-10-19T02:38:16.700Z,66.61
2022-10-19T02:43:23.272Z,66.63
2022-10-19T02:48:26.509Z,67.03
2022-10-19T02:53:29.080Z,66.68
2022-10-19T02:58:30.937Z,67.19
2022-10-19T03:03:32.933Z,67.49
2022-10-19T03:08:35.001Z,67.21
2022-10-19T03:13:36.859Z,67.03
2022-10-19T03:18:39.017Z,67.44
2022-10-19T03:23:41.322Z,67.33
2022-10-19T03:28:43.214Z,67.31
2022-10-19T03:33:45.705Z,67.65
2022-10-19T03:38:49.644Z,67.45
2022-10-19T03:43:51.850Z,67.46
2022-10-19T03:48:54.362Z,67.31
2022-10-19T03:54:02.754Z,67.46
2022-10-19T03:59:05.802Z,67.71
2022-10-19T04:04:11.536Z,67.75
2022-10-19T04:09:16.428Z,67.77
2022-10-19T04:14:31.657Z,67.88
2022-10-19T04:19:35.027Z,68.52
2022-10-19T04:24:37.025Z,68.20
2022-10-19T04:29:38.954Z,68.08
2022-10-19T04:34:41.002Z,67.57
2022-10-19T04:39:43.943Z,67.49
2022-10-19T04:44:45.841Z,67.42
2022-10-19T04:49:47.800Z,67.57
2022-10-19T04:54:49.758Z,68.06
2022-10-19T04:59:51.789Z,67.71
2022-10-19T05:04:53.713Z,67.93
2022-10-19T05:09:55.647Z,67.80
2022-10-19T05:14:57.612Z,67.99
2022-10-19T05:19:59.713Z,67.46
2022-10-19T05:25:01.647Z,67.88
2022-10-19T05:30:04.702Z,67.83
2022-10-19T05:35:12.358Z,67.85
2022-10-19T05:40:14.425Z,67.57
2022-10-19T05:45:16.359Z,68.04
2022-10-19T05:50:18.265Z,68.06
2022-10-19T05:55:20.315Z,68.24
2022-10-19T06:00:22.492Z,69.19
2022-10-19T06:05:24.480Z,69.44
2022-10-19T06:10:26.456Z,69.74
2022-10-19T06:15:28.315Z,70.00
2022-10-19T06:20:30.692Z,70.25
2022-10-19T06:25:33.720Z,69.96
2022-10-19T06:30:39.666Z,70.61
2022-10-19T06:35:43.231Z,70.33
2022-10-19T06:40:45.235Z,70.84
2022-10-19T06:45:47.305Z,71.11
2022-10-19T06:50:59.850Z,70.69
2022-10-19T06:56:04.040Z,69.80
2022-10-19T07:01:10.472Z,69.75
2022-10-19T07:06:13.460Z,70.00
2022-10-19T07:11:17.848Z,69.73
2022-10-19T07:16:21.252Z,70.18
2022-10-19T07:21:24.164Z,69.97
2022-10-19T07:26:28.153Z,70.63
2022-10-19T07:31:30.732Z,70.34
2022-10-19T07:36:34.199Z,69.01
2022-10-19T07:41:36.266Z,68.32
2022-10-19T07:46:38.891Z,68.29
2022-10-19T07:51:42.068Z,66.69
2022-10-19T07:56:44.136Z,67.64
2022-10-19T08:01:47.751Z,66.87
2022-10-19T08:06:50.217Z,65.44
2022-10-19T08:11:52.229Z,66.89
2022-10-19T08:16:54.228Z,67.34
2022-10-19T08:21:56.148Z,67.92
2022-10-19T08:26:58.144Z,66.08
2022-10-19T08:32:00.327Z,65.04
2022-10-19T08:37:10.238Z,62.72
2022-10-19T08:42:47.937Z,62.08
2022-10-19T08:47:56.152Z,63.34
2022-10-19T08:53:06.915Z,59.69
2022-10-19T08:58:24.172Z,52.92
2022-10-19T09:03:54.343Z,51.01
2022-10-19T09:08:57.087Z,50.46
2022-10-19T09:14:19.281Z,47.95
2022-10-19T09:19:26.366Z,48.28
2022-10-19T09:24:30.155Z,48.18
2022-10-19T09:29:50.301Z,47.42
2022-10-19T09:34:55.731Z,50.37
2022-10-19T09:39:57.977Z,48.75
2022-10-19T09:45:01.784Z,46.88
2022-10-19T09:50:16.175Z,46.40
2022-10-19T09:55:35.355Z,46.41
2022-10-19T10:00:43.906Z,45.17
2022-10-19T10:05:49.283Z,43.96
2022-10-19T10:11:11.948Z,44.29
2022-10-19T10:16:19.154Z,42.75
2022-10-19T10:21:26.065Z,44.17
2022-10-19T10:26:29.038Z,46.27
2022-10-19T10:31:31.347Z,44.64
2022-10-19T10:36:33.496Z,45.53
2022-10-19T10:41:39.060Z,43.92
2022-10-19T10:46:50.941Z,44.98
2022-10-19T10:52:05.923Z,46.13
2022-10-19T10:57:18.710Z,47.81
2022-10-19T11:02:49.788Z,49.27
2022-10-19T11:08:13.117Z,51.08
2022-10-19T11:13:23.622Z,48.75
2022-10-19T11:18:30.133Z,48.25
2022-10-19T11:23:48.570Z,49.39
2022-10-19T11:29:02.995Z,50.68
2022-10-19T11:34:16.115Z,49.25
2022-10-19T11:39:57.104Z,50.74
2022-10-19T11:45:16.807Z,50.44
2022-10-19T11:50:39.233Z,48.81
2022-10-19T11:55:47.064Z,49.21
2022-10-19T12:01:08.534Z,47.50
2022-10-19T12:06:29.622Z,46.84
2022-10-19T12:11:46.668Z,49.83
2022-10-19T12:16:52.418Z,48.14
2022-10-19T12:21:55.897Z,49.99
2022-10-19T12:26:58.056Z,50.29
2022-10-19T12:32:01.388Z,50.76
2022-10-19T12:37:12.371Z,50.95
2022-10-19T12:42:31.473Z,49.40
2022-10-19T12:47:33.610Z,50.29
2022-10-19T12:52:37.718Z,50.74
2022-10-19T12:57:40.323Z,50.41
2022-10-19T13:02:42.520Z,50.02
2022-10-19T13:07:48.804Z,49.38
2022-10-19T13:12:51.530Z,50.21
2022-10-19T13:17:53.433Z,50.67
2022-10-19T13:23:01.146Z,49.76
2022-10-19T13:28:18.149Z,50.54
2022-10-19T13:33:26.048Z,49.17
2022-10-19T13:38:33.111Z,48.97
2022-10-19T13:43:58.364Z,47.68
2022-10-19T13:49:37.597Z,45.82
2022-10-19T13:54:48.295Z,47.73
2022-10-19T13:59:56.137Z,46.82
2022-10-19T14:05:23.208Z,48.53
2022-10-19T14:10:32.856Z,47.22
2022-10-19T14:15:40.607Z,47.94
2022-10-19T14:20:42.524Z,46.99
2022-10-19T14:26:00.376Z,46.56
2022-10-19T14:31:08.786Z,45.51
2022-10-19T14:36:17.622Z,44.76
2022-10-19T14:41:27.193Z,46.44
2022-10-19T14:46:33.939Z,46.66
2022-10-19T14:51:46.722Z,47.00
2022-10-19T14:56:51.031Z,45.96
2022-10-19T15:01:55.706Z,46.41
2022-10-19T15:06:59.104Z,47.54
2022-10-19T15:12:12.761Z,46.94
2022-10-19T15:17:25.835Z,48.08
2022-10-19T15:22:34.141Z,42.16
2022-10-19T15:27:46.236Z,39.78
2022-10-19T15:33:01.782Z,38.60
2022-10-19T15:38:14.938Z,37.83
2022-10-19T15:43:34.830Z,37.43
2022-10-19T15:48:44.490Z,37.95
2022-10-19T15:53:46.391Z,37.73
2022-10-19T15:58:52.863Z,37.94
2022-10-19T16:03:55.248Z,38.72
2022-10-19T16:08:58.833Z,39.39
2022-10-19T16:14:00.980Z,39.88
2022-10-19T16:19:04.199Z,40.32
2022-10-19T16:24:06.079Z,40.46
2022-10-19T16:29:08.068Z,40.64
2022-10-19T16:34:10.040Z,41.30
2022-10-19T16:39:12.237Z,39.83
2022-10-19T16:44:14.136Z,38.44
2022-10-19T16:49:15.865Z,38.30
2022-10-19T16:54:18.363Z,39.08
2022-10-19T16:59:20.270Z,39.84
2022-10-19T17:04:22.238Z,40.32
2022-10-19T17:09:42.312Z,40.90
2022-10-19T17:14:44.977Z,42.00
2022-10-19T17:19:47.699Z,43.38
2022-10-19T17:24:49.690Z,44.99
2022-10-19T17:29:51.634Z,42.39
2022-10-19T17:34:54.618Z,41.92
2022-10-19T17:39:56.546Z,42.09
2022-10-19T17:44:58.474Z,42.59
2022-10-19T17:50:00.397Z,43.34
2022-10-19T17:55:17.741Z,45.26
2022-10-19T18:00:20.484Z,43.86
2022-10-19T18:05:25.602Z,44.58
2022-10-19T18:10:27.540Z,44.90
2022-10-19T18:15:29.428Z,45.05
2022-10-19T18:20:31.391Z,43.32
2022-10-19T18:25:53.533Z,42.21
2022-10-19T18:30:56.315Z,41.17
2022-10-19T18:35:58.737Z,40.78
2022-10-19T18:41:08.246Z,40.80
2022-10-19T18:46:10.713Z,39.99
2022-10-19T18:51:14.615Z,41.99
2022-10-19T18:56:17.221Z,43.40
2022-10-19T19:01:25.152Z,41.15
2022-10-19T19:06:29.595Z,39.09
2022-10-19T19:11:36.082Z,39.39
2022-10-19T19:16:40.382Z,38.75
2022-10-19T19:21:44.695Z,37.34
2022-10-19T19:26:50.726Z,37.86
2022-10-19T19:31:53.709Z,37.47
2022-10-19T19:36:55.807Z,37.59
2022-10-19T19:41:57.697Z,37.12
2022-10-19T19:47:01.111Z,36.70
2022-10-19T19:52:09.469Z,35.24
2022-10-19T19:57:11.694Z,35.70
2022-10-19T20:02:13.621Z,33.93
2022-10-19T20:07:15.580Z,34.33
2022-10-19T20:12:17.501Z,34.65
2022-10-19T20:17:23.766Z,35.52
2022-10-19T20:22:26.500Z,35.10
2022-10-19T20:27:28.896Z,34.95
2022-10-19T20:32:30.860Z,35.69
2022-10-19T20:37:33.525Z,36.20
2022-10-19T20:42:36.861Z,35.77
2022-10-19T20:47:40.132Z,36.55
2022-10-19T20:52:42.098Z,36.40
2022-10-19T20:57:44.059Z,36.41
2022-10-19T21:02:47.692Z,37.25
2022-10-19T21:07:49.586Z,36.72
2022-10-19T21:12:51.760Z,37.25
2022-10-19T21:17:53.762Z,37.62
2022-10-19T21:22:55.744Z,38.39
2022-10-19T21:27:57.658Z,37.77
2022-10-19T21:32:59.613Z,37.76
2022-10-19T21:38:01.932Z,38.31
2022-10-19T21:43:03.932Z,38.26
2022-10-19T21:48:06.046Z,38.48
2022-10-19T21:53:07.989Z,38.30
2022-10-19T21:58:10.169Z,38.69
2022-10-19T22:08:21.714Z,39.28
2022-10-19T22:13:23.577Z,39.86
2022-10-19T22:18:25.428Z,40.12
2022-10-19T22:23:28.099Z,40.00
2022-10-19T22:28:29.906Z,41.00
2022-10-19T22:33:31.801Z,41.16
2022-10-19T22:38:40.726Z,41.15
2022-10-19T22:44:39.615Z,41.49
2022-10-19T22:50:56.162Z,42.48
2022-10-19T22:56:16.954Z,42.47
2022-10-19T23:01:19.295Z,42.96
2022-10-19T23:06:21.818Z,43.71
2022-10-19T23:11:23.760Z,43.97
2022-10-19T23:21:33.376Z,44.60
2022-10-19T23:26:35.414Z,45.58
2022-10-19T23:31:38.328Z,46.04
2022-10-19T23:36:40.320Z,46.52
2022-10-19T23:41:42.182Z,46.75
2022-10-19T23:46:44.040Z,46.93
2022-10-19T23:51:46.000Z,47.33
2022-10-19T23:56:47.898Z,48.46
